Aviation Digital Data Service (ADDS)

Output produced by METARs form (0636 UTC 15 December 2017)
found at http://www.aviationweather.gov/adds/metars/
 
KBVI 150047Z 00000KT 10SM CLR M07/M11 A3003
KBVI 142347Z 00000KT 10SM CLR M07/M10 A3003
KBVI 142247Z 00000KT 10SM CLR M06/M10 A3000
KBVI 142147Z 32003KT 10SM -SN SCT025 SCT023 OVC039 M05/M09 A2998
KBVI 142047Z 30006KT 10SM OVC032 M04/M10 A2997
KBVI 141947Z 33003KT 10SM OVC033 M05/M11 A2995
KBVI 141847Z 23004KT 10SM CLR M05/M12 A2993
KBVI 141747Z 33004G14KT 10SM SCT030 M04/M11 A2994 RMK RWY 28 IS IN USE
KBVI 141647Z 31008KT 10SM CLR M04/M11 A2994 RMK RWY 28 IS IN USE
KBVI 141547Z 33008KT 10SM BKN024 M04/M10 A2994
KBVI 141447Z 35005KT 10SM SCT018 SCT043 M05/M09 A2990
KBVI 141347Z 33005KT 10SM -SN OVC013 M06/M08 A2986
KBVI 141247Z 31003KT 5SM -SN BKN011 OVC014 M06/M07 A2978
KBVI 141147Z 30005KT 10SM -SN BKN011 OVC017 M06/M07 A2973